createdAt,value
2019-06-07T00:02:18.851Z,2.70
2019-06-07T00:04:48.377Z,3.40
2019-06-07T00:07:21.883Z,3.27
2019-06-07T00:09:49.730Z,2.43
2019-06-07T00:12:21.504Z,3.23
2019-06-07T00:14:50.218Z,3.47
2019-06-07T00:17:20.221Z,3.27
2019-06-07T00:19:50.259Z,3.13
2019-06-07T00:22:32.450Z,3.30
2019-06-07T00:24:51.428Z,3.77
2019-06-07T00:27:22.593Z,3.30
2019-06-07T00:29:51.916Z,3.30
2019-06-07T00:32:22.293Z,3.47
2019-06-07T00:34:51.826Z,3.27
2019-06-07T00:37:25.257Z,2.90
2019-06-07T00:40:12.649Z,3.47
2019-06-07T00:42:24.487Z,3.17
2019-06-07T00:44:54.129Z,4.40
2019-06-07T00:47:25.539Z,3.70
2019-06-07T00:49:54.670Z,3.60
2019-06-07T00:53:11.610Z,3.30
2019-06-07T00:54:55.930Z,3.47
2019-06-07T00:57:25.338Z,3.97
2019-06-07T00:59:54.848Z,3.57
2019-06-07T01:02:28.233Z,3.73
2019-06-07T01:04:55.344Z,4.00
2019-06-07T01:07:24.736Z,4.03
2019-06-07T01:09:54.473Z,3.60
2019-06-07T01:12:26.646Z,3.90
2019-06-07T01:14:54.945Z,4.50
2019-06-07T01:17:41.548Z,3.97
2019-06-07T01:20:01.087Z,4.23
2019-06-07T01:22:30.461Z,4.07
2019-06-07T01:24:59.875Z,3.67
2019-06-07T01:27:29.271Z,4.27
2019-06-07T01:29:58.655Z,4.83
2019-06-07T01:32:31.836Z,4.10
2019-06-07T01:34:59.162Z,3.47
2019-06-07T01:37:30.309Z,4.23
2019-06-07T01:39:59.709Z,3.73
2019-06-07T01:42:30.963Z,4.30
2019-06-07T01:45:00.209Z,5.60
2019-06-07T01:47:32.201Z,4.23
2019-06-07T01:50:00.710Z,5.10
2019-06-07T01:52:30.086Z,4.60
2019-06-07T02:16:48.753Z,5.40
2019-06-07T02:19:19.405Z,6.53
2019-06-07T02:21:48.803Z,6.03
2019-06-07T02:24:24.790Z,5.90
2019-06-07T02:26:52.480Z,5.67
2019-06-07T02:29:22.918Z,5.73
2019-06-07T02:31:52.475Z,7.00
2019-06-07T02:34:24.113Z,5.53
2019-06-07T02:36:53.002Z,5.23
2019-06-07T02:39:25.252Z,5.40
2019-06-07T02:41:53.510Z,5.40
2019-06-07T02:44:24.063Z,5.73
2019-06-07T02:46:54.045Z,4.37
2019-06-07T02:49:25.191Z,4.37
2019-06-07T02:51:54.516Z,4.87
2019-06-07T02:54:24.493Z,5.40
2019-06-07T02:56:58.479Z,4.17
2019-06-07T02:59:46.857Z,5.40
2019-06-07T03:01:57.737Z,5.33
2019-06-07T03:04:32.014Z,6.00
2019-06-07T03:07:02.146Z,5.37
2019-06-07T03:09:35.015Z,5.10
2019-06-07T03:12:05.190Z,5.70
2019-06-07T03:14:39.049Z,5.63
2019-06-07T03:17:27.655Z,5.33
2019-06-07T03:20:02.370Z,4.60
2019-06-07T03:22:39.830Z,4.63
2019-06-07T03:25:07.270Z,4.90
2019-06-07T03:27:48.299Z,5.27
2019-06-07T03:30:36.371Z,5.17
2019-06-07T03:32:47.297Z,5.27
2019-06-07T03:35:11.330Z,4.77
2019-06-07T03:37:42.991Z,3.80
2019-06-07T03:40:12.243Z,5.40
2019-06-07T03:42:41.610Z,5.70
2019-06-07T03:45:11.149Z,4.97
2019-06-07T03:47:43.636Z,5.33
2019-06-07T03:50:13.227Z,4.80
2019-06-07T03:52:43.093Z,4.03
2019-06-07T03:55:12.465Z,5.03
2019-06-07T04:00:13.995Z,4.97
2019-06-07T04:02:43.424Z,5.80
2019-06-07T04:05:12.966Z,5.37
2019-06-07T04:07:44.298Z,5.67
2019-06-07T04:10:13.861Z,5.30
2019-06-07T04:12:44.413Z,5.17
2019-06-07T04:15:14.633Z,6.10
2019-06-07T04:18:00.938Z,5.90
2019-06-07T04:20:15.523Z,5.73
2019-06-07T04:22:46.043Z,6.23
2019-06-07T04:25:16.223Z,5.73
2019-06-07T04:27:45.597Z,5.87
2019-06-07T04:30:22.753Z,5.10
2019-06-07T04:32:52.148Z,5.30
2019-06-07T04:35:21.609Z,7.80
2019-06-07T04:37:51.151Z,8.17
2019-06-07T04:40:20.529Z,7.13
2019-06-07T04:42:51.104Z,6.43
2019-06-07T04:45:33.853Z,5.10
2019-06-07T04:47:55.924Z,5.30
2019-06-07T04:50:27.152Z,4.77
2019-06-07T04:52:56.530Z,4.63
2019-06-07T04:55:25.895Z,5.80
2019-06-07T04:57:55.575Z,5.20
2019-06-07T05:00:59.281Z,5.47
2019-06-07T05:03:08.970Z,5.67
2019-06-07T05:05:41.888Z,6.57
2019-06-07T05:08:26.925Z,6.90
2019-06-07T05:10:43.621Z,6.33
2019-06-07T05:13:11.752Z,6.97
2019-06-07T05:15:42.345Z,7.17
2019-06-07T05:18:11.905Z,5.97
2019-06-07T05:20:44.279Z,7.70
2019-06-07T05:23:59.324Z,7.50
2019-06-07T05:25:44.757Z,7.33
2019-06-07T05:28:14.318Z,7.27
2019-06-07T05:31:03.763Z,7.90
2019-06-07T05:33:15.005Z,7.37
2019-06-07T05:35:44.386Z,7.43
2019-06-07T05:38:13.761Z,7.00
2019-06-07T05:40:48.525Z,7.43
2019-06-07T05:43:26.012Z,7.47
2019-06-07T05:45:56.047Z,7.23
2019-06-07T05:48:26.858Z,7.70
2019-06-07T05:50:57.512Z,6.43
2019-06-07T05:53:27.204Z,6.97
2019-06-07T05:55:56.657Z,7.03
2019-06-07T05:58:26.035Z,8.17
2019-06-07T06:00:55.458Z,6.53
2019-06-07T06:03:24.839Z,6.97
2019-06-07T06:05:55.592Z,7.77
2019-06-07T06:08:26.164Z,8.33
2019-06-07T06:10:55.610Z,7.33
2019-06-07T06:13:24.986Z,6.83
2019-06-07T06:16:01.254Z,6.97
2019-06-07T06:18:25.469Z,6.07
2019-06-07T06:21:15.588Z,6.33
2019-06-07T06:23:26.018Z,6.20
2019-06-07T06:25:57.660Z,6.27
2019-06-07T06:28:27.600Z,6.57
2019-06-07T06:30:57.028Z,6.30
2019-06-07T06:33:34.574Z,5.80
2019-06-07T06:35:57.534Z,5.80
2019-06-07T06:38:26.941Z,6.03
2019-06-07T06:41:14.259Z,6.87
2019-06-07T06:43:27.438Z,6.50
2019-06-07T06:45:56.846Z,6.50
2019-06-07T06:48:26.224Z,6.97
2019-06-07T06:50:55.621Z,5.93
2019-06-07T06:53:25.038Z,7.00
2019-06-07T06:55:54.427Z,6.00
2019-06-07T06:58:23.802Z,6.20
2019-06-07T07:01:05.203Z,6.40
2019-06-07T07:03:56.563Z,6.70
2019-06-07T07:06:24.086Z,6.63
2019-06-07T07:08:28.754Z,6.47
2019-06-07T07:10:58.126Z,6.17
2019-06-07T07:13:27.507Z,5.87
2019-06-07T07:15:58.286Z,5.80
2019-06-07T07:18:27.998Z,6.67
2019-06-07T07:20:57.732Z,6.33
2019-06-07T07:23:27.265Z,6.50
2019-06-07T07:25:59.522Z,6.40
2019-06-07T07:28:29.382Z,5.97
2019-06-07T07:30:58.936Z,6.70
2019-06-07T07:34:19.799Z,6.50
2019-06-07T07:38:30.601Z,5.63
2019-06-07T07:41:14.687Z,5.70
2019-06-07T07:43:34.107Z,5.73
2019-06-07T07:46:20.026Z,5.47
2019-06-07T07:48:34.738Z,5.47
2019-06-07T07:51:04.222Z,5.23
2019-06-07T07:53:48.587Z,5.50
2019-06-07T07:56:05.160Z,5.03
2019-06-07T07:58:34.989Z,5.50
2019-06-07T08:01:10.638Z,5.40
2019-06-07T08:03:36.144Z,5.43
2019-06-07T08:06:05.644Z,5.63
2019-06-07T08:08:35.103Z,5.50
2019-06-07T08:11:04.635Z,4.50
2019-06-07T08:13:34.108Z,4.73
2019-06-07T08:16:09.052Z,5.10
2019-06-07T08:18:35.058Z,4.13
2019-06-07T08:21:21.357Z,4.80
2019-06-07T08:23:35.653Z,5.10
2019-06-07T08:26:05.361Z,4.23
2019-06-07T08:28:35.241Z,4.57
2019-06-07T08:31:07.187Z,4.67
2019-06-07T08:33:35.737Z,4.20
2019-06-07T08:36:19.267Z,4.37
2019-06-07T08:38:47.392Z,4.40
2019-06-07T08:41:11.985Z,4.33
2019-06-07T08:43:38.970Z,3.93
2019-06-07T08:46:08.367Z,4.53
2019-06-07T08:48:37.779Z,3.87
2019-06-07T08:51:08.466Z,3.70
2019-06-07T08:53:38.783Z,4.00
2019-06-07T08:56:11.067Z,3.27
2019-06-07T08:58:39.295Z,2.87
2019-06-07T09:01:09.244Z,3.53
2019-06-07T09:03:39.347Z,3.70
2019-06-07T09:06:53.790Z,3.02
2019-06-07T09:08:40.181Z,3.00
2019-06-07T09:11:11.363Z,2.70
2019-06-07T09:13:40.706Z,2.97
2019-06-07T09:16:10.113Z,2.60
2019-06-07T09:18:44.034Z,3.23
2019-06-07T09:21:10.593Z,3.20
2019-06-07T09:23:39.986Z,3.33
2019-06-07T09:26:17.658Z,2.73
2019-06-07T09:28:40.579Z,3.43
2019-06-07T09:31:12.756Z,2.67
2019-06-07T09:33:41.833Z,2.40
2019-06-07T09:36:13.290Z,2.10
2019-06-07T09:38:44.341Z,2.60
2019-06-07T09:41:13.831Z,2.43
2019-06-07T09:46:16.360Z,2.60
2019-06-07T09:49:14.035Z,2.50
2019-06-07T09:51:20.415Z,2.27
2019-06-07T09:53:49.031Z,2.43
2019-06-07T09:56:18.421Z,2.87
2019-06-07T09:58:51.907Z,3.20
2019-06-07T10:01:19.349Z,2.70
2019-06-07T10:03:48.743Z,2.80
2019-06-07T10:06:18.122Z,3.10
2019-06-07T10:11:18.636Z,2.70
2019-06-07T10:13:48.029Z,2.77
2019-06-07T10:16:17.431Z,2.73
2019-06-07T10:18:46.815Z,3.00
2019-06-07T10:21:16.196Z,2.70
2019-06-07T10:23:46.059Z,2.60
2019-06-07T10:26:15.444Z,2.80
2019-06-07T10:28:44.829Z,2.63
2019-06-07T10:31:14.209Z,2.63
2019-06-07T10:33:43.669Z,2.83
2019-06-07T10:36:13.050Z,2.67
2019-06-07T10:38:43.328Z,2.43
2019-06-07T10:41:12.695Z,2.63
2019-06-07T10:43:42.088Z,2.50
2019-06-07T10:46:12.116Z,2.80
2019-06-07T10:48:41.586Z,2.80
2019-06-07T10:51:12.571Z,4.00
2019-06-07T10:53:42.075Z,2.77
2019-06-07T10:56:11.471Z,2.63
2019-06-07T10:58:41.109Z,2.43
2019-06-07T11:01:12.884Z,2.20
2019-06-07T11:03:41.636Z,2.30
2019-06-07T11:06:12.161Z,2.20
2019-06-07T11:08:41.649Z,4.23
2019-06-07T11:11:12.241Z,2.53
2019-06-07T11:13:41.849Z,2.23
2019-06-07T11:16:11.363Z,2.00
2019-06-07T11:18:40.754Z,1.73
2019-06-07T11:21:10.245Z,2.10
2019-06-07T11:23:39.705Z,2.00
2019-06-07T11:26:10.307Z,1.80
2019-06-07T11:28:39.773Z,1.90
2019-06-07T11:31:10.808Z,1.50
2019-06-07T11:33:40.587Z,2.00
2019-06-07T11:36:10.683Z,2.40
2019-06-07T11:38:40.142Z,2.00
2019-06-07T11:41:09.870Z,2.10
2019-06-07T11:43:39.272Z,1.80
2019-06-07T11:46:08.890Z,1.90
2019-06-07T11:48:38.312Z,1.70
2019-06-07T11:51:08.588Z,1.90
2019-06-07T11:53:38.143Z,1.77
2019-06-07T11:56:07.856Z,1.73
2019-06-07T11:58:37.453Z,1.90
2019-06-07T12:01:07.583Z,1.80
2019-06-07T12:03:37.107Z,1.77
2019-06-07T12:06:08.231Z,1.77
2019-06-07T12:08:37.813Z,1.80
2019-06-07T12:11:08.066Z,1.70
2019-06-07T12:13:37.472Z,1.67
2019-06-07T12:16:07.272Z,1.83
2019-06-07T12:18:36.668Z,1.70
2019-06-07T12:21:06.117Z,2.33
2019-06-07T12:23:35.515Z,1.70
2019-06-07T12:26:05.064Z,1.60
2019-06-07T12:28:34.475Z,3.17
2019-06-07T12:31:03.875Z,2.23
2019-06-07T12:33:33.300Z,2.47
2019-06-07T12:36:02.694Z,2.50
2019-06-07T12:38:32.181Z,2.17
2019-06-07T12:41:01.595Z,2.03
2019-06-07T12:43:32.088Z,1.90
2019-06-07T12:46:01.471Z,1.83
2019-06-07T12:48:30.850Z,1.90
2019-06-07T12:51:00.230Z,2.07
2019-06-07T12:53:31.185Z,1.83
2019-06-07T12:56:00.593Z,2.10
2019-06-07T12:58:35.366Z,2.00
2019-06-07T13:01:01.103Z,1.97
2019-06-07T13:03:30.514Z,2.07
2019-06-07T13:06:19.531Z,2.07
2019-06-07T13:08:49.026Z,2.13
2019-06-07T13:11:24.274Z,2.17
2019-06-07T13:13:49.519Z,1.90
2019-06-07T13:16:19.972Z,2.00
2019-06-07T13:18:49.505Z,2.30
2019-06-07T13:21:20.306Z,2.00
2019-06-07T13:23:49.747Z,2.20
2019-06-07T13:26:20.511Z,2.13
2019-06-07T13:28:49.943Z,2.00
2019-06-07T13:31:19.328Z,2.10
2019-06-07T13:33:48.716Z,1.90
2019-06-07T13:36:18.204Z,1.70
2019-06-07T13:38:47.601Z,1.77
2019-06-07T13:41:30.317Z,2.17
2019-06-07T13:43:51.438Z,2.37
2019-06-07T13:46:19.272Z,2.10
2019-06-07T13:48:48.669Z,1.83
2019-06-07T13:51:18.989Z,1.70
2019-06-07T13:53:49.180Z,2.30
2019-06-07T13:56:19.808Z,2.03
2019-06-07T13:58:49.412Z,1.77
2019-06-07T14:01:18.797Z,1.70
2019-06-07T14:03:48.189Z,1.77
2019-06-07T14:06:18.818Z,1.77
2019-06-07T14:08:48.350Z,1.90
2019-06-07T14:11:19.402Z,1.93
2019-06-07T14:13:48.935Z,1.70
2019-06-07T14:16:18.328Z,1.60
2019-06-07T14:18:47.731Z,1.53
2019-06-07T14:21:17.548Z,1.40
2019-06-07T14:23:49.272Z,1.73
2019-06-07T14:26:18.027Z,1.33
2019-06-07T14:28:47.467Z,1.60
2019-06-07T14:31:16.858Z,1.70
2019-06-07T14:33:46.292Z,1.70
2019-06-07T14:36:15.708Z,1.70
2019-06-07T14:38:45.065Z,1.70
2019-06-07T14:41:14.450Z,2.20
2019-06-07T14:43:45.128Z,1.50
2019-06-07T14:46:14.569Z,1.87
2019-06-07T14:48:44.799Z,1.87
2019-06-07T14:51:14.187Z,1.80
2019-06-07T14:53:43.590Z,1.50
2019-06-07T14:56:12.974Z,1.87
2019-06-07T14:58:43.353Z,2.27
2019-06-07T15:01:13.069Z,2.07
2019-06-07T15:03:42.494Z,1.70
2019-06-07T15:06:11.920Z,1.65
2019-06-07T15:08:41.305Z,1.90
2019-06-07T15:11:10.696Z,1.70
2019-06-07T15:13:40.097Z,2.00
2019-06-07T15:16:09.480Z,1.63
2019-06-07T15:18:38.888Z,1.80
2019-06-07T15:21:08.296Z,1.73
2019-06-07T15:23:37.681Z,1.80
2019-06-07T15:26:07.077Z,2.03
2019-06-07T15:28:38.452Z,1.70
2019-06-07T15:31:07.882Z,3.30
2019-06-07T15:33:38.360Z,2.23
2019-06-07T15:36:07.846Z,1.93
2019-06-07T15:38:37.348Z,1.77
2019-06-07T15:41:06.704Z,1.83
2019-06-07T15:43:37.278Z,1.70
2019-06-07T15:46:06.970Z,2.23
2019-06-07T15:48:38.170Z,2.30
2019-06-07T15:51:07.851Z,2.17
2019-06-07T15:53:43.185Z,3.03
2019-06-07T15:56:10.002Z,2.13
2019-06-07T15:58:39.516Z,2.40
2019-06-07T16:01:08.869Z,2.70
2019-06-07T16:03:39.746Z,2.80
2019-06-07T16:06:09.361Z,2.80
2019-06-07T16:08:38.807Z,2.50
2019-06-07T16:11:08.137Z,2.33
2019-06-07T16:13:38.708Z,2.83
2019-06-07T16:16:08.408Z,2.70
2019-06-07T16:18:39.567Z,3.00
2019-06-07T16:21:09.173Z,2.77
2019-06-07T16:23:39.746Z,2.83
2019-06-07T16:26:09.354Z,2.83
2019-06-07T16:28:38.778Z,2.80
2019-06-07T16:31:08.156Z,4.50
2019-06-07T16:33:38.828Z,2.83
2019-06-07T16:36:08.339Z,3.50
2019-06-07T16:38:38.068Z,3.10
2019-06-07T16:41:07.477Z,3.20
2019-06-07T16:43:36.875Z,3.00
2019-06-07T16:46:06.537Z,2.80
2019-06-07T16:48:36.784Z,3.27
2019-06-07T16:51:06.312Z,3.10
2019-06-07T16:53:36.144Z,2.80
2019-06-07T16:56:06.487Z,2.77
2019-06-07T16:58:35.881Z,2.93
2019-06-07T17:01:05.353Z,3.03
2019-06-07T17:03:34.734Z,2.30
2019-06-07T17:06:04.140Z,2.07
2019-06-07T17:08:33.530Z,2.00
2019-06-07T17:11:02.921Z,1.90
2019-06-07T17:13:34.047Z,1.87
2019-06-07T17:16:03.585Z,3.03
2019-06-07T17:18:33.987Z,2.47
2019-06-07T17:21:04.126Z,3.07
2019-06-07T17:23:33.490Z,2.40
2019-06-07T17:26:02.875Z,2.50
2019-06-07T17:28:32.272Z,2.90
2019-06-07T17:31:01.682Z,3.50
2019-06-07T17:33:31.063Z,2.20
2019-06-07T17:36:00.482Z,1.80
2019-06-07T17:38:29.888Z,1.30
2019-06-07T17:41:02.242Z,1.10
2019-06-07T17:43:31.669Z,0.80
2019-06-07T17:46:01.088Z,1.37
2019-06-07T17:48:30.475Z,1.40
2019-06-07T17:50:59.902Z,0.88
2019-06-07T17:53:32.596Z,0.80
2019-06-07T17:56:03.191Z,0.90
2019-06-07T17:58:32.957Z,1.77
2019-06-07T18:01:02.346Z,0.77
2019-06-07T18:03:31.729Z,0.70
2019-06-07T18:06:05.061Z,0.90
2019-06-07T18:08:35.103Z,0.70
2019-06-07T18:11:04.510Z,0.90
2019-06-07T18:13:33.942Z,0.70
2019-06-07T18:16:03.340Z,0.70
2019-06-07T18:18:32.713Z,0.70
2019-06-07T18:21:02.112Z,0.67
2019-06-07T18:23:31.557Z,0.60
2019-06-07T18:26:01.046Z,0.90
2019-06-07T18:28:30.450Z,0.90
2019-06-07T18:31:01.397Z,0.57
2019-06-07T18:33:30.806Z,0.90
2019-06-07T18:36:00.294Z,0.97
2019-06-07T18:38:29.687Z,0.70
2019-06-07T18:40:59.624Z,1.07
2019-06-07T18:43:29.249Z,0.80
2019-06-07T18:45:58.628Z,0.70
2019-06-07T18:48:28.003Z,1.10
2019-06-07T18:50:59.073Z,0.90
2019-06-07T18:53:28.556Z,1.00
2019-06-07T18:55:58.153Z,0.90
2019-06-07T18:58:28.373Z,1.37
2019-06-07T19:00:57.743Z,1.00
2019-06-07T19:03:27.137Z,0.80
2019-06-07T19:05:56.605Z,0.80
2019-06-07T19:08:25.931Z,1.00
2019-06-07T19:10:55.306Z,0.80
2019-06-07T19:13:24.756Z,0.80
2019-06-07T19:15:55.358Z,0.80
2019-06-07T19:18:24.862Z,0.60
2019-06-07T19:20:54.377Z,0.70
2019-06-07T19:23:23.792Z,0.70
2019-06-07T19:25:54.295Z,0.63
2019-06-07T19:28:23.767Z,0.90
2019-06-07T19:30:53.175Z,0.80
2019-06-07T19:33:22.538Z,0.70
2019-06-07T19:35:53.352Z,0.80
2019-06-07T19:38:22.813Z,0.73
2019-06-07T19:40:52.218Z,0.70
2019-06-07T19:43:21.678Z,0.80
2019-06-07T19:45:52.085Z,0.93
2019-06-07T19:48:21.618Z,0.80
2019-06-07T19:50:51.028Z,0.90
2019-06-07T19:53:20.430Z,0.60
2019-06-07T19:55:49.815Z,0.80
2019-06-07T19:58:19.212Z,0.70
2019-06-07T20:00:49.403Z,0.70
2019-06-07T20:03:18.820Z,0.60
2019-06-07T20:05:48.223Z,0.80
2019-06-07T20:08:17.609Z,0.90
2019-06-07T20:10:46.988Z,0.60
2019-06-07T20:13:18.982Z,1.00
2019-06-07T20:15:47.936Z,0.70
2019-06-07T20:18:17.335Z,1.10
2019-06-07T20:20:47.536Z,0.87
2019-06-07T20:23:16.909Z,0.80
2019-06-07T20:25:46.327Z,0.90
2019-06-07T20:28:15.762Z,0.80
2019-06-07T20:30:45.140Z,0.80
2019-06-07T20:33:14.535Z,0.80
2019-06-07T20:35:43.953Z,0.80
2019-06-07T20:38:13.334Z,0.90
2019-06-07T20:40:42.744Z,0.80
2019-06-07T20:43:12.153Z,0.87
2019-06-07T20:45:41.555Z,0.80
2019-06-07T20:48:10.955Z,0.90
2019-06-07T20:50:40.401Z,1.03
2019-06-07T20:53:09.795Z,0.90
2019-06-07T20:55:39.182Z,0.77
2019-06-07T20:58:09.539Z,0.80
2019-06-07T21:00:38.944Z,0.87
2019-06-07T21:03:09.660Z,0.80
2019-06-07T21:05:39.185Z,0.73
2019-06-07T21:08:12.361Z,0.80
2019-06-07T21:10:39.655Z,0.80
2019-06-07T21:13:10.226Z,0.90
2019-06-07T21:15:48.431Z,0.87
2019-06-07T21:18:18.785Z,0.80
2019-06-07T21:20:41.982Z,0.80
2019-06-07T21:23:12.018Z,1.00
2019-06-07T21:25:41.517Z,1.20
2019-06-07T21:28:11.415Z,0.90
2019-06-07T21:30:40.932Z,0.90
2019-06-07T21:33:12.082Z,0.90
2019-06-07T21:35:42.499Z,0.90
2019-06-07T21:38:12.774Z,1.00
2019-06-07T21:40:42.243Z,1.00
2019-06-07T21:43:12.709Z,0.90
2019-06-07T21:45:42.832Z,1.00
2019-06-07T21:48:14.235Z,0.90
2019-06-07T21:50:43.764Z,1.10
2019-06-07T21:53:13.152Z,1.20
2019-06-07T21:55:42.529Z,0.90
2019-06-07T21:58:11.949Z,1.20
2019-06-07T22:00:57.338Z,0.80
2019-06-07T22:03:26.799Z,0.93
2019-06-07T22:05:56.179Z,1.20
2019-06-07T22:08:25.546Z,0.80
2019-06-07T22:10:55.082Z,0.90
2019-06-07T22:13:24.458Z,1.00
2019-06-07T22:15:53.859Z,0.90
2019-06-07T22:18:23.250Z,0.90
2019-06-07T22:20:52.631Z,0.73
2019-06-07T22:23:22.008Z,0.90
2019-06-07T22:25:51.415Z,0.80
2019-06-07T22:28:20.805Z,0.90
2019-06-07T22:30:50.178Z,0.90
2019-06-07T22:33:19.973Z,1.00
2019-06-07T22:35:49.358Z,0.90
2019-06-07T22:38:18.724Z,0.80
2019-06-07T22:40:48.133Z,0.80
2019-06-07T22:43:18.855Z,0.90
2019-06-07T22:45:48.680Z,1.00
2019-06-07T22:48:18.087Z,1.30
2019-06-07T22:50:47.489Z,1.00
2019-06-07T22:53:17.684Z,0.93
2019-06-07T22:55:48.833Z,0.90
2019-06-07T22:58:18.983Z,0.90
2019-06-07T23:00:48.575Z,0.90
2019-06-07T23:03:19.103Z,0.90
2019-06-07T23:05:48.658Z,1.00
2019-06-07T23:08:19.111Z,0.80
2019-06-07T23:10:48.636Z,0.80
2019-06-07T23:13:18.031Z,1.10
2019-06-07T23:15:47.423Z,0.90
2019-06-07T23:18:36.593Z,1.13
2019-06-07T23:21:05.968Z,1.20
2019-06-07T23:23:35.378Z,0.87
2019-06-07T23:26:12.361Z,0.90
2019-06-07T23:28:39.148Z,0.93
2019-06-07T23:31:08.543Z,0.80
2019-06-07T23:33:38.051Z,1.10
2019-06-07T23:36:07.436Z,0.90
2019-06-07T23:38:36.857Z,1.00
2019-06-07T23:41:06.253Z,1.37
2019-06-07T23:43:35.613Z,1.00
2019-06-07T23:46:04.985Z,1.00
2019-06-07T23:48:34.376Z,1.13
2019-06-07T23:51:03.761Z,1.03
2019-06-07T23:53:33.126Z,1.10
2019-06-07T23:56:02.586Z,0.93
2019-06-07T23:58:31.980Z,0.80
